Main page
METAR-TAF:

METAR-TAF

Airports :

Zaragoza, Spain

Zaragoza Airport

latitude: 41-40N, longitude: 001-01W, elevation: 263 m

Current weather observation

The report was made 14 minutes ago, at 07:30 UTC
Wind 3 kt from the North/Northeast, varying between North/Northwest and East/Northeast
Temperature 14°C
Humidity 88%
Pressure 1019 hPa
Visibility 10 km or more
Few clouds at a height of 8500 ft

METAR: LEZG 230730Z 03003KT 330V070 9999 FEW085 14/12 Q1019

Time: 09:44 (07:44 UTC)

Forecast

The report was made 2 hours and 44 minutes ago, at 05:00 UTC
Forecast valid from 23 at 06 UTC to 24 at 06 UTC
Wind 3 kt from variable directions
Visibility 10 km or more
Few clouds at a height of 6000 ft
Temporary
from 23 at 16 UTC to 23 at 20 UTC
Wind 10 kt from the South/Southeast
Probability 40% :
Temporary
from 23 at 15 UTC to 23 at 19 UTC
Few clouds at a height of 4500 ft, Towering cumulus.

TAF: LEZG 230500Z 2306/2406 VRB03KT 9999 FEW060 TX24/2314Z TN12/2406Z TEMPO 2316/2320 16010KT PROB40 TEMPO 2315/2319 FEW045TCU

Weather observations and forecasts of more than 4000 airports (METAR and TAF reports).

The available stations are represented by yellow and red dots on the map.

Hover mouse over dot to see the name of the station.

Then click to see weather observations and forecasts.

To change the map : click on the green buttons with a black cross to zoom in, on the green button with a dash to zoom out, or on the green arrows for adjacent maps.


METAR-TAF: